sensor_id;sensor_type;location;lat;lon;timestamp;pressure;altitude;pressure_sealevel;temperature;humidity
59873;BME280;50750;51.636;4.948;2023-09-19T00:01:40;100888.34;;;22.66;58.57
59873;BME280;50750;51.636;4.948;2023-09-19T00:04:09;100896.55;;;22.66;58.46
59873;BME280;50750;51.636;4.948;2023-09-19T00:06:36;100894.66;;;22.66;58.58
59873;BME280;50750;51.636;4.948;2023-09-19T00:09:03;100897.65;;;22.66;58.40
59873;BME280;50750;51.636;4.948;2023-09-19T00:11:29;100901.28;;;22.65;58.53
59873;BME280;50750;51.636;4.948;2023-09-19T00:13:55;100903.81;;;22.65;58.40
59873;BME280;50750;51.636;4.948;2023-09-19T00:16:25;100912.02;;;22.65;58.42
59873;BME280;50750;51.636;4.948;2023-09-19T00:18:51;100914.71;;;22.65;58.58
59873;BME280;50750;51.636;4.948;2023-09-19T00:21:18;100918.33;;;22.64;58.25
59873;BME280;50750;51.636;4.948;2023-09-19T00:23:45;100920.27;;;22.65;58.37
59873;BME280;50750;51.636;4.948;2023-09-19T00:26:10;100922.25;;;22.64;58.21
59873;BME280;50750;51.636;4.948;2023-09-19T00:28:36;100923.01;;;22.63;58.33
59873;BME280;50750;51.636;4.948;2023-09-19T00:31:02;100926.02;;;22.64;58.38
59873;BME280;50750;51.636;4.948;2023-09-19T00:33:28;100926.98;;;22.63;58.46
59873;BME280;50750;51.636;4.948;2023-09-19T00:35:56;100932.33;;;22.63;58.35
59873;BME280;50750;51.636;4.948;2023-09-19T00:38:23;100928.48;;;22.62;58.34
59873;BME280;50750;51.636;4.948;2023-09-19T00:40:53;100930.81;;;22.62;58.34
59873;BME280;50750;51.636;4.948;2023-09-19T00:43:20;100937.42;;;22.62;58.41
59873;BME280;50750;51.636;4.948;2023-09-19T00:45:49;100935.88;;;22.61;58.19
59873;BME280;50750;51.636;4.948;2023-09-19T00:48:17;100937.66;;;22.61;58.11
59873;BME280;50750;51.636;4.948;2023-09-19T00:50:46;100944.48;;;22.61;58.26
59873;BME280;50750;51.636;4.948;2023-09-19T00:53:15;100945.21;;;22.61;58.19
59873;BME280;50750;51.636;4.948;2023-09-19T00:55:45;100950.23;;;22.60;58.18
59873;BME280;50750;51.636;4.948;2023-09-19T00:58:11;100949.88;;;22.60;58.21
59873;BME280;50750;51.636;4.948;2023-09-19T01:00:37;100957.60;;;22.60;58.10
59873;BME280;50750;51.636;4.948;2023-09-19T01:03:05;100957.98;;;22.60;58.16
59873;BME280;50750;51.636;4.948;2023-09-19T01:05:33;100962.63;;;22.59;57.98
59873;BME280;50750;51.636;4.948;2023-09-19T01:07:59;100962.83;;;22.59;57.99
59873;BME280;50750;51.636;4.948;2023-09-19T01:10:25;100961.80;;;22.58;58.00
59873;BME280;50750;51.636;4.948;2023-09-19T01:13:05;100966.82;;;22.58;57.87
59873;BME280;50750;51.636;4.948;2023-09-19T01:15:51;100965.61;;;22.58;57.94
59873;BME280;50750;51.636;4.948;2023-09-19T01:18:48;100965.64;;;22.57;57.86
59873;BME280;50750;51.636;4.948;2023-09-19T01:25:19;100969.99;;;22.56;57.79
59873;BME280;50750;51.636;4.948;2023-09-19T01:27:48;100974.34;;;22.56;57.85
59873;BME280;50750;51.636;4.948;2023-09-19T01:30:21;100972.95;;;22.55;57.87
59873;BME280;50750;51.636;4.948;2023-09-19T01:32:51;100981.52;;;22.55;57.90
59873;BME280;50750;51.636;4.948;2023-09-19T01:35:18;100982.61;;;22.55;57.69
59873;BME280;50750;51.636;4.948;2023-09-19T01:37:44;100977.83;;;22.55;57.63
59873;BME280;50750;51.636;4.948;2023-09-19T01:40:17;100979.06;;;22.55;57.68
59873;BME280;50750;51.636;4.948;2023-09-19T01:51:05;100980.78;;;22.53;57.47
59873;BME280;50750;51.636;4.948;2023-09-19T01:53:50;100978.13;;;22.53;57.65
59873;BME280;50750;51.636;4.948;2023-09-19T01:56:51;100978.55;;;22.52;57.55
59873;BME280;50750;51.636;4.948;2023-09-19T01:59:25;100974.48;;;22.52;57.48
59873;BME280;50750;51.636;4.948;2023-09-19T02:01:54;100974.85;;;22.51;57.60
59873;BME280;50750;51.636;4.948;2023-09-19T02:04:22;100975.21;;;22.51;57.71
59873;BME280;50750;51.636;4.948;2023-09-19T02:06:47;100975.74;;;22.51;57.68
59873;BME280;50750;51.636;4.948;2023-09-19T02:09:14;100976.13;;;22.51;57.70
59873;BME280;50750;51.636;4.948;2023-09-19T02:11:40;100974.50;;;22.51;57.62
59873;BME280;50750;51.636;4.948;2023-09-19T02:14:07;100974.75;;;22.50;57.66
59873;BME280;50750;51.636;4.948;2023-09-19T02:16:34;100974.55;;;22.50;57.59
59873;BME280;50750;51.636;4.948;2023-09-19T02:19:00;100973.67;;;22.50;57.54
59873;BME280;50750;51.636;4.948;2023-09-19T02:21:26;100978.89;;;22.50;57.68
59873;BME280;50750;51.636;4.948;2023-09-19T02:23:55;100986.02;;;22.50;57.63
59873;BME280;50750;51.636;4.948;2023-09-19T02:26:21;100984.64;;;22.49;57.54
59873;BME280;50750;51.636;4.948;2023-09-19T02:28:50;100986.09;;;22.49;57.59
59873;BME280;50750;51.636;4.948;2023-09-19T02:31:16;100982.73;;;22.49;57.49
59873;BME280;50750;51.636;4.948;2023-09-19T02:33:42;100987.44;;;22.48;57.46
59873;BME280;50750;51.636;4.948;2023-09-19T02:36:09;100988.52;;;22.48;57.56
59873;BME280;50750;51.636;4.948;2023-09-19T02:38:35;100994.63;;;22.47;57.48
59873;BME280;50750;51.636;4.948;2023-09-19T02:41:03;100994.85;;;22.47;57.48
59873;BME280;50750;51.636;4.948;2023-09-19T02:43:29;100993.23;;;22.47;57.48
59873;BME280;50750;51.636;4.948;2023-09-19T02:45:54;100988.13;;;22.46;57.51
59873;BME280;50750;51.636;4.948;2023-09-19T02:48:20;100984.95;;;22.45;57.57
59873;BME280;50750;51.636;4.948;2023-09-19T02:50:49;100985.15;;;22.45;57.44
59873;BME280;50750;51.636;4.948;2023-09-19T02:53:15;100982.90;;;22.44;57.37
59873;BME280;50750;51.636;4.948;2023-09-19T02:55:41;100985.08;;;22.44;57.48
59873;BME280;50750;51.636;4.948;2023-09-19T02:58:08;100990.30;;;22.43;57.54
59873;BME280;50750;51.636;4.948;2023-09-19T03:00:37;100993.02;;;22.43;57.40
59873;BME280;50750;51.636;4.948;2023-09-19T03:03:03;100996.08;;;22.42;57.31
59873;BME280;50750;51.636;4.948;2023-09-19T03:05:31;100997.17;;;22.42;57.41
59873;BME280;50750;51.636;4.948;2023-09-19T03:07:58;100998.12;;;22.41;57.55
59873;BME280;50750;51.636;4.948;2023-09-19T03:10:27;100997.39;;;22.42;57.44
59873;BME280;50750;51.636;4.948;2023-09-19T03:12:53;100998.15;;;22.41;57.56
59873;BME280;50750;51.636;4.948;2023-09-19T03:15:19;101003.54;;;22.41;57.49
59873;BME280;50750;51.636;4.948;2023-09-19T03:17:47;101003.91;;;22.40;57.64
59873;BME280;50750;51.636;4.948;2023-09-19T03:20:14;101003.90;;;22.40;57.52
59873;BME280;50750;51.636;4.948;2023-09-19T03:22:45;101001.25;;;22.40;57.50
59873;BME280;50750;51.636;4.948;2023-09-19T03:25:12;100992.60;;;22.39;57.51
59873;BME280;50750;51.636;4.948;2023-09-19T03:27:39;100990.60;;;22.39;57.52
59873;BME280;50750;51.636;4.948;2023-09-19T03:30:05;100991.16;;;22.39;57.52
59873;BME280;50750;51.636;4.948;2023-09-19T03:32:37;100992.81;;;22.39;57.39
59873;BME280;50750;51.636;4.948;2023-09-19T03:35:03;100994.19;;;22.37;57.47
59873;BME280;50750;51.636;4.948;2023-09-19T03:37:32;100992.43;;;22.37;57.43
59873;BME280;50750;51.636;4.948;2023-09-19T03:40:00;100989.98;;;22.36;57.54
59873;BME280;50750;51.636;4.948;2023-09-19T03:42:31;100987.36;;;22.35;57.38
59873;BME280;50750;51.636;4.948;2023-09-19T03:44:57;100984.98;;;22.34;57.51
59873;BME280;50750;51.636;4.948;2023-09-19T03:47:22;100989.25;;;22.34;57.53
59873;BME280;50750;51.636;4.948;2023-09-19T03:49:49;100991.09;;;22.33;57.41
59873;BME280;50750;51.636;4.948;2023-09-19T03:52:14;100987.73;;;22.33;57.57
59873;BME280;50750;51.636;4.948;2023-09-19T03:54:43;100986.66;;;22.33;57.43
59873;BME280;50750;51.636;4.948;2023-09-19T03:57:10;100984.15;;;22.33;57.58
59873;BME280;50750;51.636;4.948;2023-09-19T03:59:38;100982.42;;;22.32;57.48
59873;BME280;50750;51.636;4.948;2023-09-19T04:02:04;100987.10;;;22.32;57.43
59873;BME280;50750;51.636;4.948;2023-09-19T04:04:30;100986.43;;;22.31;57.44
59873;BME280;50750;51.636;4.948;2023-09-19T04:06:56;100986.63;;;22.31;57.40
59873;BME280;50750;51.636;4.948;2023-09-19T04:09:21;100984.48;;;22.31;57.42
59873;BME280;50750;51.636;4.948;2023-09-19T04:11:47;100992.68;;;22.31;57.42
59873;BME280;50750;51.636;4.948;2023-09-19T04:14:15;101005.58;;;22.31;57.48
59873;BME280;50750;51.636;4.948;2023-09-19T04:16:41;101008.13;;;22.30;57.42
59873;BME280;50750;51.636;4.948;2023-09-19T04:19:07;101006.15;;;22.30;57.40
59873;BME280;50750;51.636;4.948;2023-09-19T04:21:33;101012.58;;;22.30;57.46
59873;BME280;50750;51.636;4.948;2023-09-19T04:23:58;101014.21;;;22.29;57.43
59873;BME280;50750;51.636;4.948;2023-09-19T04:26:24;101022.42;;;22.29;57.43
59873;BME280;50750;51.636;4.948;2023-09-19T04:28:51;101029.03;;;22.29;57.47
59873;BME280;50750;51.636;4.948;2023-09-19T04:31:17;101032.10;;;22.28;57.46
59873;BME280;50750;51.636;4.948;2023-09-19T04:33:45;101038.73;;;22.28;57.50
59873;BME280;50750;51.636;4.948;2023-09-19T04:36:10;101043.01;;;22.28;57.49
59873;BME280;50750;51.636;4.948;2023-09-19T04:38:38;101048.07;;;22.27;57.27
59873;BME280;50750;51.636;4.948;2023-09-19T04:41:05;101048.61;;;22.27;57.42
59873;BME280;50750;51.636;4.948;2023-09-19T04:43:31;101051.79;;;22.28;57.36
59873;BME280;50750;51.636;4.948;2023-09-19T04:45:57;101060.95;;;22.27;57.37
59873;BME280;50750;51.636;4.948;2023-09-19T04:48:26;101061.66;;;22.27;57.47
59873;BME280;50750;51.636;4.948;2023-09-19T04:50:51;101060.31;;;22.26;57.34
59873;BME280;50750;51.636;4.948;2023-09-19T04:53:18;101052.68;;;22.25;57.39
59873;BME280;50750;51.636;4.948;2023-09-19T04:55:52;101051.78;;;22.25;57.49
59873;BME280;50750;51.636;4.948;2023-09-19T04:58:18;101048.95;;;22.25;57.45
59873;BME280;50750;51.636;4.948;2023-09-19T05:00:45;101048.61;;;22.25;57.47
59873;BME280;50750;51.636;4.948;2023-09-19T05:03:11;101051.48;;;22.25;57.34
59873;BME280;50750;51.636;4.948;2023-09-19T05:05:37;101051.14;;;22.24;57.33
59873;BME280;50750;51.636;4.948;2023-09-19T05:08:04;101052.98;;;22.24;57.36
59873;BME280;50750;51.636;4.948;2023-09-19T05:10:32;101056.50;;;22.24;57.35
59873;BME280;50750;51.636;4.948;2023-09-19T05:12:58;101049.60;;;22.24;57.53
59873;BME280;50750;51.636;4.948;2023-09-19T05:15:23;101052.14;;;22.23;57.38
59873;BME280;50750;51.636;4.948;2023-09-19T05:17:51;101051.13;;;22.23;57.26
59873;BME280;50750;51.636;4.948;2023-09-19T05:20:17;101052.22;;;22.22;57.40
59873;BME280;50750;51.636;4.948;2023-09-19T05:23:02;101055.25;;;22.22;57.32
59873;BME280;50750;51.636;4.948;2023-09-19T05:25:32;101055.14;;;22.21;57.38
59873;BME280;50750;51.636;4.948;2023-09-19T05:27:59;101064.65;;;22.20;57.37
59873;BME280;50750;51.636;4.948;2023-09-19T05:30:25;101066.84;;;22.20;57.38
59873;BME280;50750;51.636;4.948;2023-09-19T05:32:53;101064.73;;;22.20;57.48
59873;BME280;50750;51.636;4.948;2023-09-19T05:35:20;101064.53;;;22.20;57.43
59873;BME280;50750;51.636;4.948;2023-09-19T05:37:48;101060.32;;;22.19;57.49
59873;BME280;50750;51.636;4.948;2023-09-19T05:40:17;101056.73;;;22.19;57.42
59873;BME280;50750;51.636;4.948;2023-09-19T05:42:44;101053.55;;;22.19;57.27
59873;BME280;50750;51.636;4.948;2023-09-19T05:45:11;101057.80;;;22.19;57.29
59873;BME280;50750;51.636;4.948;2023-09-19T05:47:40;101055.38;;;22.18;56.85
59873;BME280;50750;51.636;4.948;2023-09-19T05:50:09;101056.53;;;22.17;56.56
59873;BME280;50750;51.636;4.948;2023-09-19T05:52:36;101058.35;;;22.16;56.77
59873;BME280;50750;51.636;4.948;2023-09-19T05:55:04;101056.42;;;22.16;56.90
59873;BME280;50750;51.636;4.948;2023-09-19T05:57:32;101058.56;;;22.16;56.96
59873;BME280;50750;51.636;4.948;2023-09-19T05:59:58;101059.20;;;22.15;57.01
59873;BME280;50750;51.636;4.948;2023-09-19T06:02:24;101062.08;;;22.14;56.98
59873;BME280;50750;51.636;4.948;2023-09-19T06:04:52;101058.74;;;22.13;57.12
59873;BME280;50750;51.636;4.948;2023-09-19T06:07:23;101061.25;;;22.13;57.06
59873;BME280;50750;51.636;4.948;2023-09-19T06:09:52;101068.58;;;22.13;57.13
59873;BME280;50750;51.636;4.948;2023-09-19T06:12:21;101069.55;;;22.12;57.02
59873;BME280;50750;51.636;4.948;2023-09-19T06:14:47;101070.60;;;22.12;57.10
59873;BME280;50750;51.636;4.948;2023-09-19T06:17:14;101071.64;;;22.13;57.25
59873;BME280;50750;51.636;4.948;2023-09-19T06:19:40;101082.39;;;22.12;57.02
59873;BME280;50750;51.636;4.948;2023-09-19T06:22:15;101088.26;;;22.12;57.25
59873;BME280;50750;51.636;4.948;2023-09-19T06:24:44;101086.16;;;22.12;57.26
59873;BME280;50750;51.636;4.948;2023-09-19T06:27:11;101085.43;;;22.12;57.28
59873;BME280;50750;51.636;4.948;2023-09-19T06:29:37;101088.84;;;22.12;57.29
59873;BME280;50750;51.636;4.948;2023-09-19T06:32:09;101088.90;;;22.11;57.23
59873;BME280;50750;51.636;4.948;2023-09-19T06:34:36;101092.29;;;22.11;57.33
59873;BME280;50750;51.636;4.948;2023-09-19T06:37:04;101091.19;;;22.11;57.25
59873;BME280;50750;51.636;4.948;2023-09-19T06:39:31;101096.96;;;22.10;57.22
59873;BME280;50750;51.636;4.948;2023-09-19T06:41:57;101091.85;;;22.10;57.40
59873;BME280;50750;51.636;4.948;2023-09-19T06:44:24;101095.79;;;22.10;57.24
59873;BME280;50750;51.636;4.948;2023-09-19T06:46:50;101095.58;;;22.10;57.36
59873;BME280;50750;51.636;4.948;2023-09-19T06:49:17;101093.84;;;22.09;57.36
59873;BME280;50750;51.636;4.948;2023-09-19T06:51:43;101089.60;;;22.09;57.36
59873;BME280;50750;51.636;4.948;2023-09-19T06:54:10;101091.74;;;22.09;57.32
59873;BME280;50750;51.636;4.948;2023-09-19T06:56:36;101091.61;;;22.08;57.26
59873;BME280;50750;51.636;4.948;2023-09-19T06:59:01;101090.20;;;22.08;57.31
59873;BME280;50750;51.636;4.948;2023-09-19T07:01:29;101094.16;;;22.07;57.31
59873;BME280;50750;51.636;4.948;2023-09-19T07:03:55;101096.11;;;22.08;57.30
59873;BME280;50750;51.636;4.948;2023-09-19T07:06:21;101098.44;;;22.07;57.23
59873;BME280;50750;51.636;4.948;2023-09-19T07:08:46;101097.23;;;22.07;57.38
59873;BME280;50750;51.636;4.948;2023-09-19T07:11:12;101104.77;;;22.06;57.27
59873;BME280;50750;51.636;4.948;2023-09-19T07:13:38;101097.65;;;22.06;57.32
59873;BME280;50750;51.636;4.948;2023-09-19T07:16:04;101094.09;;;22.05;57.28
59873;BME280;50750;51.636;4.948;2023-09-19T07:18:30;101092.48;;;22.05;57.26
59873;BME280;50750;51.636;4.948;2023-09-19T07:20:58;101092.17;;;22.05;57.32
59873;BME280;50750;51.636;4.948;2023-09-19T07:23:31;101089.50;;;22.05;57.37
59873;BME280;50750;51.636;4.948;2023-09-19T07:26:03;101096.09;;;22.05;57.27
59873;BME280;50750;51.636;4.948;2023-09-19T07:28:31;101101.49;;;22.04;57.29
59873;BME280;50750;51.636;4.948;2023-09-19T07:31:01;101102.42;;;22.04;57.31
59873;BME280;50750;51.636;4.948;2023-09-19T07:33:28;101106.55;;;22.04;57.24
59873;BME280;50750;51.636;4.948;2023-09-19T07:35:54;101107.81;;;22.03;57.31
59873;BME280;50750;51.636;4.948;2023-09-19T07:38:20;101108.17;;;22.03;57.30
59873;BME280;50750;51.636;4.948;2023-09-19T07:40:47;101107.30;;;22.03;57.32
59873;BME280;50750;51.636;4.948;2023-09-19T07:43:12;101106.77;;;22.03;57.33
59873;BME280;50750;51.636;4.948;2023-09-19T07:45:38;101105.70;;;22.03;57.27
59873;BME280;50750;51.636;4.948;2023-09-19T07:48:04;101099.32;;;22.02;57.39
59873;BME280;50750;51.636;4.948;2023-09-19T07:50:34;101102.18;;;22.02;57.24
59873;BME280;50750;51.636;4.948;2023-09-19T07:53:03;101102.35;;;22.02;57.36
59873;BME280;50750;51.636;4.948;2023-09-19T07:55:30;101103.62;;;22.02;57.25
59873;BME280;50750;51.636;4.948;2023-09-19T07:57:56;101108.63;;;22.02;57.39
59873;BME280;50750;51.636;4.948;2023-09-19T08:00:23;101110.91;;;22.02;57.37
59873;BME280;50750;51.636;4.948;2023-09-19T08:02:48;101112.03;;;22.02;57.38
59873;BME280;50750;51.636;4.948;2023-09-19T08:05:14;101106.48;;;22.02;57.31
59873;BME280;50750;51.636;4.948;2023-09-19T08:07:44;101105.27;;;22.01;57.42
59873;BME280;50750;51.636;4.948;2023-09-19T08:10:11;101112.77;;;22.02;57.31
59873;BME280;50750;51.636;4.948;2023-09-19T08:12:45;101106.73;;;22.01;57.35
59873;BME280;50750;51.636;4.948;2023-09-19T08:15:16;101108.52;;;22.01;57.42
59873;BME280;50750;51.636;4.948;2023-09-19T08:17:43;101109.95;;;22.01;57.39
59873;BME280;50750;51.636;4.948;2023-09-19T08:20:10;101108.20;;;22.01;57.38
59873;BME280;50750;51.636;4.948;2023-09-19T08:22:50;101115.52;;;22.01;57.38
59873;BME280;50750;51.636;4.948;2023-09-19T08:25:18;101111.77;;;22.00;57.40
59873;BME280;50750;51.636;4.948;2023-09-19T08:27:45;101110.88;;;22.01;57.40
59873;BME280;50750;51.636;4.948;2023-09-19T08:30:14;101111.75;;;22.01;57.47
59873;BME280;50750;51.636;4.948;2023-09-19T08:32:41;101112.40;;;22.02;57.30
59873;BME280;50750;51.636;4.948;2023-09-19T08:35:10;101109.05;;;22.01;57.31
59873;BME280;50750;51.636;4.948;2023-09-19T08:37:36;101102.46;;;22.01;57.42
59873;BME280;50750;51.636;4.948;2023-09-19T08:40:02;101104.45;;;22.01;57.37
59873;BME280;50750;51.636;4.948;2023-09-19T08:42:28;101109.07;;;22.01;57.29
59873;BME280;50750;51.636;4.948;2023-09-19T08:44:57;101107.80;;;22.01;57.19
59873;BME280;50750;51.636;4.948;2023-09-19T08:50:28;101107.64;;;22.01;57.32
59873;BME280;50750;51.636;4.948;2023-09-19T08:53:01;101112.98;;;22.01;57.33
59873;BME280;50750;51.636;4.948;2023-09-19T08:55:28;101113.86;;;22.01;57.37
59873;BME280;50750;51.636;4.948;2023-09-19T08:58:03;101119.38;;;22.01;57.20
59873;BME280;50750;51.636;4.948;2023-09-19T09:00:31;101115.83;;;22.01;57.23
59873;BME280;50750;51.636;4.948;2023-09-19T09:02:58;101114.23;;;22.01;57.32
59873;BME280;50750;51.636;4.948;2023-09-19T09:05:25;101117.23;;;22.02;57.30
59873;BME280;50750;51.636;4.948;2023-09-19T09:07:52;101111.20;;;22.01;57.18
59873;BME280;50750;51.636;4.948;2023-09-19T09:10:22;101102.61;;;22.01;57.23
59873;BME280;50750;51.636;4.948;2023-09-19T09:12:52;101099.22;;;22.01;57.29
59873;BME280;50750;51.636;4.948;2023-09-19T09:15:22;101091.54;;;22.02;57.25
59873;BME280;50750;51.636;4.948;2023-09-19T09:17:49;101090.44;;;22.02;57.17
59873;BME280;50750;51.636;4.948;2023-09-19T09:20:19;101083.35;;;22.01;57.21
59873;BME280;50750;51.636;4.948;2023-09-19T09:23:03;101089.17;;;22.02;57.30
59873;BME280;50750;51.636;4.948;2023-09-19T09:25:50;101085.09;;;22.02;57.21
59873;BME280;50750;51.636;4.948;2023-09-19T09:28:19;101084.95;;;22.01;57.26
59873;BME280;50750;51.636;4.948;2023-09-19T09:30:46;101093.46;;;22.02;57.21
59873;BME280;50750;51.636;4.948;2023-09-19T09:33:14;101095.23;;;22.02;57.37
59873;BME280;50750;51.636;4.948;2023-09-19T09:35:49;101095.38;;;22.02;57.11
59873;BME280;50750;51.636;4.948;2023-09-19T09:38:22;101096.46;;;22.02;57.26
59873;BME280;50750;51.636;4.948;2023-09-19T09:40:56;101091.12;;;22.02;57.30
59873;BME280;50750;51.636;4.948;2023-09-19T09:43:34;101089.34;;;22.02;57.26
59873;BME280;50750;51.636;4.948;2023-09-19T09:46:12;101090.90;;;22.03;57.31
59873;BME280;50750;51.636;4.948;2023-09-19T09:48:56;101094.65;;;22.03;57.38
59873;BME280;50750;51.636;4.948;2023-09-19T09:51:49;101088.04;;;22.03;57.28
59873;BME280;50750;51.636;4.948;2023-09-19T09:54:28;101085.36;;;22.03;57.34
59873;BME280;50750;51.636;4.948;2023-09-19T09:57:06;101086.23;;;22.03;57.27
59873;BME280;50750;51.636;4.948;2023-09-19T10:00:09;101090.15;;;22.04;57.23
59873;BME280;50750;51.636;4.948;2023-09-19T10:02:38;101094.45;;;22.03;57.20
59873;BME280;50750;51.636;4.948;2023-09-19T10:07:51;101096.88;;;22.04;56.94
59873;BME280;50750;51.636;4.948;2023-09-19T10:10:48;101092.66;;;22.03;56.72
59873;BME280;50750;51.636;4.948;2023-09-19T10:13:29;101095.17;;;22.03;56.88
59873;BME280;50750;51.636;4.948;2023-09-19T10:15:58;101090.33;;;22.03;56.81
59873;BME280;50750;51.636;4.948;2023-09-19T10:18:26;101081.60;;;22.03;56.99
59873;BME280;50750;51.636;4.948;2023-09-19T10:20:53;101076.57;;;22.04;56.97
59873;BME280;50750;51.636;4.948;2023-09-19T10:23:21;101077.63;;;22.04;56.89
59873;BME280;50750;51.636;4.948;2023-09-19T10:25:52;101081.70;;;22.04;56.85
59873;BME280;50750;51.636;4.948;2023-09-19T10:28:19;101082.55;;;22.05;56.90
59873;BME280;50750;51.636;4.948;2023-09-19T10:30:50;101078.83;;;22.05;56.96
59873;BME280;50750;51.636;4.948;2023-09-19T10:33:18;101072.05;;;22.05;56.87
59873;BME280;50750;51.636;4.948;2023-09-19T10:35:47;101070.58;;;22.05;56.87
59873;BME280;50750;51.636;4.948;2023-09-19T10:38:16;101063.32;;;22.05;56.77
59873;BME280;50750;51.636;4.948;2023-09-19T10:40:51;101060.16;;;22.04;56.69
59873;BME280;50750;51.636;4.948;2023-09-19T10:43:21;101053.42;;;22.03;56.73
59873;BME280;50750;51.636;4.948;2023-09-19T10:45:50;101054.27;;;22.04;56.78
59873;BME280;50750;51.636;4.948;2023-09-19T10:48:18;101048.75;;;22.04;56.81
59873;BME280;50750;51.636;4.948;2023-09-19T10:53:28;101044.06;;;22.05;56.75
59873;BME280;50750;51.636;4.948;2023-09-19T10:55:59;101041.77;;;22.04;56.64
59873;BME280;50750;51.636;4.948;2023-09-19T10:58:31;101039.94;;;22.05;56.86
59873;BME280;50750;51.636;4.948;2023-09-19T11:01:04;101041.48;;;22.05;56.83
59873;BME280;50750;51.636;4.948;2023-09-19T11:03:44;101043.29;;;22.05;56.87
59873;BME280;50750;51.636;4.948;2023-09-19T11:06:15;101036.50;;;22.05;56.81
59873;BME280;50750;51.636;4.948;2023-09-19T11:09:02;101039.19;;;22.05;56.69
59873;BME280;50750;51.636;4.948;2023-09-19T11:36:10;100995.54;;;22.08;56.49
59873;BME280;50750;51.636;4.948;2023-09-19T11:44:31;100989.05;;;22.08;56.29
59873;BME280;50750;51.636;4.948;2023-09-19T11:49:29;100983.86;;;22.09;56.45
59873;BME280;50750;51.636;4.948;2023-09-19T11:51:56;100989.20;;;22.09;56.54
59873;BME280;50750;51.636;4.948;2023-09-19T11:54:23;100985.26;;;22.09;56.38
59873;BME280;50750;51.636;4.948;2023-09-19T11:56:54;100982.34;;;22.10;56.50
59873;BME280;50750;51.636;4.948;2023-09-19T11:59:25;100989.83;;;22.10;56.47
59873;BME280;50750;51.636;4.948;2023-09-19T12:02:05;100998.95;;;22.10;56.43
59873;BME280;50750;51.636;4.948;2023-09-19T12:04:45;101001.40;;;22.10;56.58
59873;BME280;50750;51.636;4.948;2023-09-19T12:07:15;101007.09;;;22.10;56.56
59873;BME280;50750;51.636;4.948;2023-09-19T12:09:48;101009.59;;;22.10;56.56
59873;BME280;50750;51.636;4.948;2023-09-19T12:12:26;101006.49;;;22.11;56.69
59873;BME280;50750;51.636;4.948;2023-09-19T12:14:56;101001.34;;;22.11;56.47
59873;BME280;50750;51.636;4.948;2023-09-19T12:17:39;100996.84;;;22.11;56.47
59873;BME280;50750;51.636;4.948;2023-09-19T12:20:07;100999.16;;;22.12;56.43
59873;BME280;50750;51.636;4.948;2023-09-19T12:22:43;101003.06;;;22.11;56.53
59873;BME280;50750;51.636;4.948;2023-09-19T12:25:10;101002.75;;;22.11;56.49
59873;BME280;50750;51.636;4.948;2023-09-19T12:27:47;100999.83;;;22.12;56.59
59873;BME280;50750;51.636;4.948;2023-09-19T12:30:14;100997.16;;;22.12;56.58
59873;BME280;50750;51.636;4.948;2023-09-19T12:32:40;100988.27;;;22.12;56.50
59873;BME280;50750;51.636;4.948;2023-09-19T12:35:08;100983.42;;;22.12;56.54
59873;BME280;50750;51.636;4.948;2023-09-19T12:37:45;100988.77;;;22.12;56.57
59873;BME280;50750;51.636;4.948;2023-09-19T12:40:14;100985.39;;;22.12;56.52
59873;BME280;50750;51.636;4.948;2023-09-19T12:42:44;100984.48;;;22.12;56.48
59873;BME280;50750;51.636;4.948;2023-09-19T12:45:11;100982.02;;;22.11;56.54
59873;BME280;50750;51.636;4.948;2023-09-19T12:47:39;100990.59;;;22.11;56.63
59873;BME280;50750;51.636;4.948;2023-09-19T12:50:13;100993.41;;;22.12;56.58
59873;BME280;50750;51.636;4.948;2023-09-19T12:52:45;100997.72;;;22.12;56.50
59873;BME280;50750;51.636;4.948;2023-09-19T12:55:23;101000.58;;;22.11;56.58
59873;BME280;50750;51.636;4.948;2023-09-19T12:58:11;101005.89;;;22.12;56.54
59873;BME280;50750;51.636;4.948;2023-09-19T13:00:40;101001.10;;;22.12;56.55
59873;BME280;50750;51.636;4.948;2023-09-19T13:03:26;101001.60;;;22.12;56.47
59873;BME280;50750;51.636;4.948;2023-09-19T13:05:55;101001.31;;;22.11;56.47
59873;BME280;50750;51.636;4.948;2023-09-19T13:08:28;101001.30;;;22.12;56.62
59873;BME280;50750;51.636;4.948;2023-09-19T13:11:03;101001.47;;;22.12;56.37
59873;BME280;50750;51.636;4.948;2023-09-19T13:13:33;100999.86;;;22.12;56.47
59873;BME280;50750;51.636;4.948;2023-09-19T13:16:01;101001.23;;;22.12;56.60
59873;BME280;50750;51.636;4.948;2023-09-19T13:18:27;100998.95;;;22.12;56.60
59873;BME280;50750;51.636;4.948;2023-09-19T13:21:12;101001.44;;;22.12;56.66
59873;BME280;50750;51.636;4.948;2023-09-19T13:23:42;101001.58;;;22.12;56.61
59873;BME280;50750;51.636;4.948;2023-09-19T13:26:11;100998.93;;;22.12;56.66
59873;BME280;50750;51.636;4.948;2023-09-19T13:28:38;100997.86;;;22.12;56.57
59873;BME280;50750;51.636;4.948;2023-09-19T13:31:05;100997.46;;;22.12;56.50
59873;BME280;50750;51.636;4.948;2023-09-19T13:33:32;100997.84;;;22.12;56.73
59873;BME280;50750;51.636;4.948;2023-09-19T13:35:58;101001.21;;;22.12;56.58
59873;BME280;50750;51.636;4.948;2023-09-19T13:38:23;101003.33;;;22.13;56.64
59873;BME280;50750;51.636;4.948;2023-09-19T13:40:49;100994.94;;;22.13;56.58
59873;BME280;50750;51.636;4.948;2023-09-19T13:43:18;101000.79;;;22.13;56.64
59873;BME280;50750;51.636;4.948;2023-09-19T13:45:44;100997.92;;;22.13;56.64
59873;BME280;50750;51.636;4.948;2023-09-19T13:48:09;100992.96;;;22.13;56.50
59873;BME280;50750;51.636;4.948;2023-09-19T13:50:37;100995.84;;;22.13;56.55
59873;BME280;50750;51.636;4.948;2023-09-19T13:53:08;100988.48;;;22.13;56.48
59873;BME280;50750;51.636;4.948;2023-09-19T13:55:34;100985.09;;;22.13;56.67